sensor_id;sensor_type;location;lat;lon;timestamp;temperature;humidity
38456;DHT22;24237;50.106;20.014;2023-12-14T00:01:28;7.10;99.90
38456;DHT22;24237;50.106;20.014;2023-12-14T00:03:54;7.10;99.90
38456;DHT22;24237;50.106;20.014;2023-12-14T00:06:19;7.20;99.90
38456;DHT22;24237;50.106;20.014;2023-12-14T00:08:45;7.00;99.90
38456;DHT22;24237;50.106;20.014;2023-12-14T00:11:11;7.00;99.90
38456;DHT22;24237;50.106;20.014;2023-12-14T00:13:37;6.90;99.90
38456;DHT22;24237;50.106;20.014;2023-12-14T00:16:04;6.80;99.90
38456;DHT22;24237;50.106;20.014;2023-12-14T00:18:29;7.00;99.90
38456;DHT22;24237;50.106;20.014;2023-12-14T00:20:55;6.90;99.90
38456;DHT22;24237;50.106;20.014;2023-12-14T00:23:22;7.10;99.90
38456;DHT22;24237;50.106;20.014;2023-12-14T00:25:47;7.10;99.90
38456;DHT22;24237;50.106;20.014;2023-12-14T00:28:13;7.30;99.90
38456;DHT22;24237;50.106;20.014;2023-12-14T00:30:39;7.40;99.90
38456;DHT22;24237;50.106;20.014;2023-12-14T00:33:05;7.30;99.90
38456;DHT22;24237;50.106;20.014;2023-12-14T00:35:31;7.40;99.90
38456;DHT22;24237;50.106;20.014;2023-12-14T00:37:57;7.30;1.00
38456;DHT22;24237;50.106;20.014;2023-12-14T00:40:22;7.10;69.30
38456;DHT22;24237;50.106;20.014;2023-12-14T00:42:48;7.00;99.90
38456;DHT22;24237;50.106;20.014;2023-12-14T00:45:15;7.00;25.30
38456;DHT22;24237;50.106;20.014;2023-12-14T00:47:41;7.00;97.70
38456;DHT22;24237;50.106;20.014;2023-12-14T00:50:07;6.90;99.90
38456;DHT22;24237;50.106;20.014;2023-12-14T00:52:33;6.80;99.90
38456;DHT22;24237;50.106;20.014;2023-12-14T00:54:59;7.00;99.90
38456;DHT22;24237;50.106;20.014;2023-12-14T00:57:24;7.00;99.90
38456;DHT22;24237;50.106;20.014;2023-12-14T00:59:50;7.10;99.90
38456;DHT22;24237;50.106;20.014;2023-12-14T01:02:16;7.30;66.30
38456;DHT22;24237;50.106;20.014;2023-12-14T01:04:41;7.10;31.40
38456;DHT22;24237;50.106;20.014;2023-12-14T01:07:08;6.90;99.90
38456;DHT22;24237;50.106;20.014;2023-12-14T01:09:33;6.70;99.90
38456;DHT22;24237;50.106;20.014;2023-12-14T01:11:59;6.80;99.90
38456;DHT22;24237;50.106;20.014;2023-12-14T01:14:25;6.70;99.90
38456;DHT22;24237;50.106;20.014;2023-12-14T01:16:51;6.80;99.90
38456;DHT22;24237;50.106;20.014;2023-12-14T01:19:16;6.70;99.90
38456;DHT22;24237;50.106;20.014;2023-12-14T01:21:42;6.70;99.90
38456;DHT22;24237;50.106;20.014;2023-12-14T01:24:08;6.80;99.90
38456;DHT22;24237;50.106;20.014;2023-12-14T01:26:34;7.00;99.90
38456;DHT22;24237;50.106;20.014;2023-12-14T01:28:59;7.00;99.90
38456;DHT22;24237;50.106;20.014;2023-12-14T01:31:25;7.00;99.90
38456;DHT22;24237;50.106;20.014;2023-12-14T01:33:51;7.10;99.90
38456;DHT22;24237;50.106;20.014;2023-12-14T01:36:24;7.10;99.90
38456;DHT22;24237;50.106;20.014;2023-12-14T01:38:50;7.10;99.90
38456;DHT22;24237;50.106;20.014;2023-12-14T01:41:16;6.90;99.90
38456;DHT22;24237;50.106;20.014;2023-12-14T01:43:42;7.00;99.90
38456;DHT22;24237;50.106;20.014;2023-12-14T01:46:08;6.80;99.90
38456;DHT22;24237;50.106;20.014;2023-12-14T01:48:34;6.70;99.90
38456;DHT22;24237;50.106;20.014;2023-12-14T01:51:00;6.60;99.90
38456;DHT22;24237;50.106;20.014;2023-12-14T01:53:26;6.50;99.90
38456;DHT22;24237;50.106;20.014;2023-12-14T01:55:52;6.60;99.90
38456;DHT22;24237;50.106;20.014;2023-12-14T01:58:18;6.50;99.90
38456;DHT22;24237;50.106;20.014;2023-12-14T02:03:22;6.50;99.90
38456;DHT22;24237;50.106;20.014;2023-12-14T02:05:48;6.50;99.90
38456;DHT22;24237;50.106;20.014;2023-12-14T02:08:14;6.60;99.90
38456;DHT22;24237;50.106;20.014;2023-12-14T02:10:40;6.50;99.90
38456;DHT22;24237;50.106;20.014;2023-12-14T02:13:05;6.50;99.90
38456;DHT22;24237;50.106;20.014;2023-12-14T02:15:31;6.60;99.90
38456;DHT22;24237;50.106;20.014;2023-12-14T02:17:57;6.80;99.90
38456;DHT22;24237;50.106;20.014;2023-12-14T02:20:22;7.00;99.90
38456;DHT22;24237;50.106;20.014;2023-12-14T02:22:51;6.80;99.90
38456;DHT22;24237;50.106;20.014;2023-12-14T02:25:17;6.70;99.90
38456;DHT22;24237;50.106;20.014;2023-12-14T02:27:43;6.70;99.90
38456;DHT22;24237;50.106;20.014;2023-12-14T02:30:10;6.70;99.90
38456;DHT22;24237;50.106;20.014;2023-12-14T02:32:37;6.90;99.90
38456;DHT22;24237;50.106;20.014;2023-12-14T02:35:03;6.70;99.90
38456;DHT22;24237;50.106;20.014;2023-12-14T02:37:29;6.80;99.90
38456;DHT22;24237;50.106;20.014;2023-12-14T02:39:55;6.90;99.90
38456;DHT22;24237;50.106;20.014;2023-12-14T02:42:21;6.80;99.90
38456;DHT22;24237;50.106;20.014;2023-12-14T02:44:47;6.80;99.90
38456;DHT22;24237;50.106;20.014;2023-12-14T02:47:12;6.80;99.90
38456;DHT22;24237;50.106;20.014;2023-12-14T02:49:38;6.70;99.90
38456;DHT22;24237;50.106;20.014;2023-12-14T02:52:04;6.80;99.90
38456;DHT22;24237;50.106;20.014;2023-12-14T02:54:30;6.90;99.90
38456;DHT22;24237;50.106;20.014;2023-12-14T02:56:55;7.00;99.90
38456;DHT22;24237;50.106;20.014;2023-12-14T02:59:21;7.00;99.90
38456;DHT22;24237;50.106;20.014;2023-12-14T03:01:47;7.10;99.90
38456;DHT22;24237;50.106;20.014;2023-12-14T03:04:12;7.10;99.90
38456;DHT22;24237;50.106;20.014;2023-12-14T03:06:38;7.20;99.90
38456;DHT22;24237;50.106;20.014;2023-12-14T03:09:04;7.20;99.90
38456;DHT22;24237;50.106;20.014;2023-12-14T03:11:30;7.10;99.90
38456;DHT22;24237;50.106;20.014;2023-12-14T03:13:55;7.20;99.90
38456;DHT22;24237;50.106;20.014;2023-12-14T03:16:21;7.10;99.90
38456;DHT22;24237;50.106;20.014;2023-12-14T03:18:48;6.90;99.90
38456;DHT22;24237;50.106;20.014;2023-12-14T03:21:18;7.10;99.90
38456;DHT22;24237;50.106;20.014;2023-12-14T03:23:43;7.00;99.90
38456;DHT22;24237;50.106;20.014;2023-12-14T03:26:09;7.10;99.90
38456;DHT22;24237;50.106;20.014;2023-12-14T03:28:35;7.20;99.90
38456;DHT22;24237;50.106;20.014;2023-12-14T03:31:00;6.90;99.90
38456;DHT22;24237;50.106;20.014;2023-12-14T03:33:26;6.80;99.90
38456;DHT22;24237;50.106;20.014;2023-12-14T03:35:52;6.70;99.90
38456;DHT22;24237;50.106;20.014;2023-12-14T03:38:18;6.70;99.90
38456;DHT22;24237;50.106;20.014;2023-12-14T03:40:45;6.90;99.90
38456;DHT22;24237;50.106;20.014;2023-12-14T03:43:10;6.90;99.90
38456;DHT22;24237;50.106;20.014;2023-12-14T03:45:36;6.90;99.90
38456;DHT22;24237;50.106;20.014;2023-12-14T03:48:02;6.80;99.90
38456;DHT22;24237;50.106;20.014;2023-12-14T03:50:27;6.70;99.90
38456;DHT22;24237;50.106;20.014;2023-12-14T03:52:54;6.70;99.90
38456;DHT22;24237;50.106;20.014;2023-12-14T03:55:20;6.70;99.90
38456;DHT22;24237;50.106;20.014;2023-12-14T03:57:46;6.80;99.90
38456;DHT22;24237;50.106;20.014;2023-12-14T04:00:12;7.10;99.90
38456;DHT22;24237;50.106;20.014;2023-12-14T04:02:41;7.10;99.90
38456;DHT22;24237;50.106;20.014;2023-12-14T04:05:07;7.10;99.90
38456;DHT22;24237;50.106;20.014;2023-12-14T04:07:36;7.20;94.90
38456;DHT22;24237;50.106;20.014;2023-12-14T04:10:05;7.00;99.90
38456;DHT22;24237;50.106;20.014;2023-12-14T04:12:31;7.20;78.80
38456;DHT22;24237;50.106;20.014;2023-12-14T04:14:56;7.20;99.90
38456;DHT22;24237;50.106;20.014;2023-12-14T04:17:22;7.10;99.90
38456;DHT22;24237;50.106;20.014;2023-12-14T04:19:48;7.20;1.00
38456;DHT22;24237;50.106;20.014;2023-12-14T04:22:14;7.10;21.20
38456;DHT22;24237;50.106;20.014;2023-12-14T04:24:39;7.00;59.80
38456;DHT22;24237;50.106;20.014;2023-12-14T04:27:05;7.00;99.90
38456;DHT22;24237;50.106;20.014;2023-12-14T04:29:31;7.10;99.20
38456;DHT22;24237;50.106;20.014;2023-12-14T04:31:56;7.20;32.40
38456;DHT22;24237;50.106;20.014;2023-12-14T04:34:22;7.20;1.00
38456;DHT22;24237;50.106;20.014;2023-12-14T04:36:48;7.00;50.80
38456;DHT22;24237;50.106;20.014;2023-12-14T04:39:14;6.90;99.90
38456;DHT22;24237;50.106;20.014;2023-12-14T04:41:50;6.80;99.90
38456;DHT22;24237;50.106;20.014;2023-12-14T04:44:15;6.80;99.90
38456;DHT22;24237;50.106;20.014;2023-12-14T04:46:41;6.80;99.90
38456;DHT22;24237;50.106;20.014;2023-12-14T04:49:07;7.00;99.90
38456;DHT22;24237;50.106;20.014;2023-12-14T04:51:33;7.00;95.40
38456;DHT22;24237;50.106;20.014;2023-12-14T04:53:59;6.90;99.90
38456;DHT22;24237;50.106;20.014;2023-12-14T04:56:25;7.10;99.90
38456;DHT22;24237;50.106;20.014;2023-12-14T04:58:50;7.10;99.90
38456;DHT22;24237;50.106;20.014;2023-12-14T05:01:16;7.10;97.00
38456;DHT22;24237;50.106;20.014;2023-12-14T05:03:42;7.20;95.70
38456;DHT22;24237;50.106;20.014;2023-12-14T05:06:08;7.10;30.00
38456;DHT22;24237;50.106;20.014;2023-12-14T05:08:33;7.20;99.90
38456;DHT22;24237;50.106;20.014;2023-12-14T05:10:59;7.30;44.40
38456;DHT22;24237;50.106;20.014;2023-12-14T05:13:25;7.40;99.90
38456;DHT22;24237;50.106;20.014;2023-12-14T05:15:51;7.40;1.00
38456;DHT22;24237;50.106;20.014;2023-12-14T05:18:18;7.20;1.00
38456;DHT22;24237;50.106;20.014;2023-12-14T05:20:44;7.10;1.00
38456;DHT22;24237;50.106;20.014;2023-12-14T05:23:11;7.20;56.50
38456;DHT22;24237;50.106;20.014;2023-12-14T05:25:38;7.10;99.90
38456;DHT22;24237;50.106;20.014;2023-12-14T05:28:04;7.10;66.20
38456;DHT22;24237;50.106;20.014;2023-12-14T05:30:30;7.20;92.80
38456;DHT22;24237;50.106;20.014;2023-12-14T05:32:55;7.20;1.00
38456;DHT22;24237;50.106;20.014;2023-12-14T05:35:21;7.10;86.70
38456;DHT22;24237;50.106;20.014;2023-12-14T05:37:47;7.10;1.00
38456;DHT22;24237;50.106;20.014;2023-12-14T05:40:13;6.90;80.10
38456;DHT22;24237;50.106;20.014;2023-12-14T05:42:39;7.00;99.90
38456;DHT22;24237;50.106;20.014;2023-12-14T05:45:05;7.10;85.20
38456;DHT22;24237;50.106;20.014;2023-12-14T05:47:32;6.80;15.80
38456;DHT22;24237;50.106;20.014;2023-12-14T05:49:59;7.10;99.90
38456;DHT22;24237;50.106;20.014;2023-12-14T05:52:25;7.30;1.00
38456;DHT22;24237;50.106;20.014;2023-12-14T05:54:51;7.00;1.00
38456;DHT22;24237;50.106;20.014;2023-12-14T05:57:17;7.10;65.30
38456;DHT22;24237;50.106;20.014;2023-12-14T05:59:42;7.00;87.80
38456;DHT22;24237;50.106;20.014;2023-12-14T06:02:08;6.80;99.90
38456;DHT22;24237;50.106;20.014;2023-12-14T06:04:34;6.70;99.90
38456;DHT22;24237;50.106;20.014;2023-12-14T06:07:00;6.40;99.90
38456;DHT22;24237;50.106;20.014;2023-12-14T06:09:26;6.70;99.90
38456;DHT22;24237;50.106;20.014;2023-12-14T06:12:00;6.80;99.90
38456;DHT22;24237;50.106;20.014;2023-12-14T06:14:26;6.90;99.90
38456;DHT22;24237;50.106;20.014;2023-12-14T06:16:52;6.80;99.90
38456;DHT22;24237;50.106;20.014;2023-12-14T06:19:18;6.70;99.90
38456;DHT22;24237;50.106;20.014;2023-12-14T06:21:43;6.90;99.90
38456;DHT22;24237;50.106;20.014;2023-12-14T06:24:09;6.90;99.90
38456;DHT22;24237;50.106;20.014;2023-12-14T06:26:35;6.90;16.90
38456;DHT22;24237;50.106;20.014;2023-12-14T06:29:05;7.10;99.90
38456;DHT22;24237;50.106;20.014;2023-12-14T06:31:31;7.00;87.00
38456;DHT22;24237;50.106;20.014;2023-12-14T06:33:56;7.00;99.90
38456;DHT22;24237;50.106;20.014;2023-12-14T06:36:23;7.00;99.90
38456;DHT22;24237;50.106;20.014;2023-12-14T06:38:52;7.10;99.90
38456;DHT22;24237;50.106;20.014;2023-12-14T06:41:21;6.90;99.90
38456;DHT22;24237;50.106;20.014;2023-12-14T06:43:47;7.00;99.90
38456;DHT22;24237;50.106;20.014;2023-12-14T06:46:13;6.90;85.70
38456;DHT22;24237;50.106;20.014;2023-12-14T06:48:41;6.90;99.90
38456;DHT22;24237;50.106;20.014;2023-12-14T06:51:07;6.90;99.90
38456;DHT22;24237;50.106;20.014;2023-12-14T06:53:34;6.80;99.90
38456;DHT22;24237;50.106;20.014;2023-12-14T06:56:00;6.70;99.90
38456;DHT22;24237;50.106;20.014;2023-12-14T06:58:26;6.80;99.90
38456;DHT22;24237;50.106;20.014;2023-12-14T07:00:52;6.70;99.90
38456;DHT22;24237;50.106;20.014;2023-12-14T07:03:18;6.70;99.90
38456;DHT22;24237;50.106;20.014;2023-12-14T07:05:44;6.90;99.90
38456;DHT22;24237;50.106;20.014;2023-12-14T07:08:10;6.90;99.90
38456;DHT22;24237;50.106;20.014;2023-12-14T07:10:35;6.90;73.70
38456;DHT22;24237;50.106;20.014;2023-12-14T07:13:01;6.90;47.70
38456;DHT22;24237;50.106;20.014;2023-12-14T07:15:27;7.00;21.80
38456;DHT22;24237;50.106;20.014;2023-12-14T07:17:53;7.20;3.70
38456;DHT22;24237;50.106;20.014;2023-12-14T07:20:19;7.30;1.00
38456;DHT22;24237;50.106;20.014;2023-12-14T07:22:44;7.30;1.00
38456;DHT22;24237;50.106;20.014;2023-12-14T07:25:10;7.10;1.00
38456;DHT22;24237;50.106;20.014;2023-12-14T07:27:36;7.10;21.80
38456;DHT22;24237;50.106;20.014;2023-12-14T07:30:01;7.20;1.00
38456;DHT22;24237;50.106;20.014;2023-12-14T07:32:27;7.20;1.00
38456;DHT22;24237;50.106;20.014;2023-12-14T07:34:53;7.10;1.00
38456;DHT22;24237;50.106;20.014;2023-12-14T07:37:18;7.20;1.00
38456;DHT22;24237;50.106;20.014;2023-12-14T07:39:44;7.10;1.00
38456;DHT22;24237;50.106;20.014;2023-12-14T07:42:10;7.30;99.90
38456;DHT22;24237;50.106;20.014;2023-12-14T07:44:36;7.30;1.00
38456;DHT22;24237;50.106;20.014;2023-12-14T07:47:03;7.10;99.90
38456;DHT22;24237;50.106;20.014;2023-12-14T07:49:28;7.00;1.00
38456;DHT22;24237;50.106;20.014;2023-12-14T07:51:54;7.00;1.00
38456;DHT22;24237;50.106;20.014;2023-12-14T07:54:20;7.10;1.00
38456;DHT22;24237;50.106;20.014;2023-12-14T07:56:46;7.10;1.00
38456;DHT22;24237;50.106;20.014;2023-12-14T07:59:12;7.10;1.00
38456;DHT22;24237;50.106;20.014;2023-12-14T08:01:38;7.10;1.00
38456;DHT22;24237;50.106;20.014;2023-12-14T08:04:04;7.00;1.00
38456;DHT22;24237;50.106;20.014;2023-12-14T08:06:30;7.10;54.10
38456;DHT22;24237;50.106;20.014;2023-12-14T08:08:56;7.20;1.00
38456;DHT22;24237;50.106;20.014;2023-12-14T08:11:25;7.30;1.00
38456;DHT22;24237;50.106;20.014;2023-12-14T08:13:51;7.30;1.00
38456;DHT22;24237;50.106;20.014;2023-12-14T08:16:16;7.30;99.90
38456;DHT22;24237;50.106;20.014;2023-12-14T08:18:45;7.20;99.90
38456;DHT22;24237;50.106;20.014;2023-12-14T08:21:12;7.30;99.90
38456;DHT22;24237;50.106;20.014;2023-12-14T08:23:38;7.20;1.00
38456;DHT22;24237;50.106;20.014;2023-12-14T08:26:04;7.40;1.00
38456;DHT22;24237;50.106;20.014;2023-12-14T08:28:29;7.50;99.90
38456;DHT22;24237;50.106;20.014;2023-12-14T08:30:55;7.50;99.90
38456;DHT22;24237;50.106;20.014;2023-12-14T08:33:24;7.60;99.90
38456;DHT22;24237;50.106;20.014;2023-12-14T08:35:50;7.50;99.90
38456;DHT22;24237;50.106;20.014;2023-12-14T08:38:16;7.40;99.90
38456;DHT22;24237;50.106;20.014;2023-12-14T08:40:42;7.50;99.90
38456;DHT22;24237;50.106;20.014;2023-12-14T08:43:07;7.50;54.50
38456;DHT22;24237;50.106;20.014;2023-12-14T08:45:33;7.50;99.90
38456;DHT22;24237;50.106;20.014;2023-12-14T08:47:59;7.50;99.90
38456;DHT22;24237;50.106;20.014;2023-12-14T08:50:25;7.50;99.90
38456;DHT22;24237;50.106;20.014;2023-12-14T08:52:53;7.60;99.90
38456;DHT22;24237;50.106;20.014;2023-12-14T08:55:19;7.80;99.90
38456;DHT22;24237;50.106;20.014;2023-12-14T08:57:45;7.80;1.00
38456;DHT22;24237;50.106;20.014;2023-12-14T09:00:11;7.70;99.90
38456;DHT22;24237;50.106;20.014;2023-12-14T09:02:37;7.70;91.20
38456;DHT22;24237;50.106;20.014;2023-12-14T09:05:03;7.70;1.00
38456;DHT22;24237;50.106;20.014;2023-12-14T09:07:30;7.50;1.00
38456;DHT22;24237;50.106;20.014;2023-12-14T09:09:56;7.60;99.90
38456;DHT22;24237;50.106;20.014;2023-12-14T09:12:22;7.70;1.00
38456;DHT22;24237;50.106;20.014;2023-12-14T09:14:48;7.70;1.00
38456;DHT22;24237;50.106;20.014;2023-12-14T09:17:13;7.80;1.00
38456;DHT22;24237;50.106;20.014;2023-12-14T09:19:39;7.70;1.00
38456;DHT22;24237;50.106;20.014;2023-12-14T09:22:05;7.60;99.90
38456;DHT22;24237;50.106;20.014;2023-12-14T09:24:50;7.60;38.20
38456;DHT22;24237;50.106;20.014;2023-12-14T09:27:36;7.60;1.00
38456;DHT22;24237;50.106;20.014;2023-12-14T09:30:02;7.70;1.00
38456;DHT22;24237;50.106;20.014;2023-12-14T09:32:28;7.70;1.00
38456;DHT22;24237;50.106;20.014;2023-12-14T09:34:54;7.60;77.20
38456;DHT22;24237;50.106;20.014;2023-12-14T09:37:22;7.60;22.70
38456;DHT22;24237;50.106;20.014;2023-12-14T09:39:47;7.60;91.70
38456;DHT22;24237;50.106;20.014;2023-12-14T09:42:19;7.50;1.00
38456;DHT22;24237;50.106;20.014;2023-12-14T09:44:48;7.20;99.90
38456;DHT22;24237;50.106;20.014;2023-12-14T09:47:15;7.40;99.90
38456;DHT22;24237;50.106;20.014;2023-12-14T09:49:42;7.50;1.00
38456;DHT22;24237;50.106;20.014;2023-12-14T09:52:09;7.40;99.90
38456;DHT22;24237;50.106;20.014;2023-12-14T09:54:35;7.60;99.90
38456;DHT22;24237;50.106;20.014;2023-12-14T09:57:01;7.80;1.00
38456;DHT22;24237;50.106;20.014;2023-12-14T09:59:27;7.70;20.00
38456;DHT22;24237;50.106;20.014;2023-12-14T10:01:52;7.60;99.90
38456;DHT22;24237;50.106;20.014;2023-12-14T10:04:19;7.40;1.00
38456;DHT22;24237;50.106;20.014;2023-12-14T10:06:49;7.50;1.00
38456;DHT22;24237;50.106;20.014;2023-12-14T10:09:14;7.60;1.00
38456;DHT22;24237;50.106;20.014;2023-12-14T10:11:44;7.70;99.90
38456;DHT22;24237;50.106;20.014;2023-12-14T10:14:21;7.60;1.00
38456;DHT22;24237;50.106;20.014;2023-12-14T10:16:49;7.80;1.00
38456;DHT22;24237;50.106;20.014;2023-12-14T10:19:17;7.70;1.00
38456;DHT22;24237;50.106;20.014;2023-12-14T10:21:43;7.80;99.90
38456;DHT22;24237;50.106;20.014;2023-12-14T10:24:09;7.60;99.90
38456;DHT22;24237;50.106;20.014;2023-12-14T10:26:35;7.70;93.20
38456;DHT22;24237;50.106;20.014;2023-12-14T10:29:01;7.70;36.80
38456;DHT22;24237;50.106;20.014;2023-12-14T10:31:31;8.00;99.90
38456;DHT22;24237;50.106;20.014;2023-12-14T10:33:56;8.10;99.90
38456;DHT22;24237;50.106;20.014;2023-12-14T10:36:25;7.90;99.90
38456;DHT22;24237;50.106;20.014;2023-12-14T10:38:56;7.90;99.90
38456;DHT22;24237;50.106;20.014;2023-12-14T10:41:23;7.80;99.90
38456;DHT22;24237;50.106;20.014;2023-12-14T10:43:51;7.80;1.00
38456;DHT22;24237;50.106;20.014;2023-12-14T10:46:19;7.70;1.00
38456;DHT22;24237;50.106;20.014;2023-12-14T10:48:47;7.70;1.00
38456;DHT22;24237;50.106;20.014;2023-12-14T10:51:13;8.00;1.00
38456;DHT22;24237;50.106;20.014;2023-12-14T10:53:41;7.80;99.90
38456;DHT22;24237;50.106;20.014;2023-12-14T10:56:10;7.90;1.00
38456;DHT22;24237;50.106;20.014;2023-12-14T10:58:54;7.70;99.90
38456;DHT22;24237;50.106;20.014;2023-12-14T11:01:22;7.70;1.00
38456;DHT22;24237;50.106;20.014;2023-12-14T11:03:50;7.80;19.80
38456;DHT22;24237;50.106;20.014;2023-12-14T11:08:57;7.90;99.90
38456;DHT22;24237;50.106;20.014;2023-12-14T11:11:27;7.80;1.00
38456;DHT22;24237;50.106;20.014;2023-12-14T11:13:53;8.10;21.40
38456;DHT22;24237;50.106;20.014;2023-12-14T11:16:26;8.00;19.00
38456;DHT22;24237;50.106;20.014;2023-12-14T11:24:31;7.80;86.30
38456;DHT22;24237;50.106;20.014;2023-12-14T11:26:57;7.80;99.90
38456;DHT22;24237;50.106;20.014;2023-12-14T11:29:22;8.00;1.00
38456;DHT22;24237;50.106;20.014;2023-12-14T11:31:48;8.00;1.00
38456;DHT22;24237;50.106;20.014;2023-12-14T11:34:17;7.90;99.90
38456;DHT22;24237;50.106;20.014;2023-12-14T11:36:43;7.80;24.30
38456;DHT22;24237;50.106;20.014;2023-12-14T11:39:11;7.80;99.90
38456;DHT22;24237;50.106;20.014;2023-12-14T11:41:37;7.70;97.60
38456;DHT22;24237;50.106;20.014;2023-12-14T11:44:04;7.90;99.90
38456;DHT22;24237;50.106;20.014;2023-12-14T11:46:30;7.80;99.90
38456;DHT22;24237;50.106;20.014;2023-12-14T11:48:57;7.80;99.90
38456;DHT22;24237;50.106;20.014;2023-12-14T11:51:23;8.10;49.30
38456;DHT22;24237;50.106;20.014;2023-12-14T11:53:51;8.00;1.00
38456;DHT22;24237;50.106;20.014;2023-12-14T11:56:18;7.70;99.90
38456;DHT22;24237;50.106;20.014;2023-12-14T11:58:44;7.80;99.90
38456;DHT22;24237;50.106;20.014;2023-12-14T12:01:20;7.80;99.90
38456;DHT22;24237;50.106;20.014;2023-12-14T12:03:51;7.90;99.90
38456;DHT22;24237;50.106;20.014;2023-12-14T12:06:26;7.80;99.90
38456;DHT22;24237;50.106;20.014;2023-12-14T12:08:56;7.80;99.90
38456;DHT22;24237;50.106;20.014;2023-12-14T12:11:23;7.80;1.00
38456;DHT22;24237;50.106;20.014;2023-12-14T12:13:54;7.80;99.90
38456;DHT22;24237;50.106;20.014;2023-12-14T12:16:20;7.80;99.90
38456;DHT22;24237;50.106;20.014;2023-12-14T12:18:46;7.50;99.90
38456;DHT22;24237;50.106;20.014;2023-12-14T12:21:12;7.60;99.90
38456;DHT22;24237;50.106;20.014;2023-12-14T12:23:38;7.70;99.90
38456;DHT22;24237;50.106;20.014;2023-12-14T12:26:04;7.70;99.90
38456;DHT22;24237;50.106;20.014;2023-12-14T12:28:31;7.80;99.90
38456;DHT22;24237;50.106;20.014;2023-12-14T12:30:57;7.90;99.90
38456;DHT22;24237;50.106;20.014;2023-12-14T12:33:25;8.00;56.30
38456;DHT22;24237;50.106;20.014;2023-12-14T12:35:51;8.30;1.00
38456;DHT22;24237;50.106;20.014;2023-12-14T12:38:17;7.90;99.90
38456;DHT22;24237;50.106;20.014;2023-12-14T12:40:44;7.80;1.00
38456;DHT22;24237;50.106;20.014;2023-12-14T12:43:10;7.80;99.90
38456;DHT22;24237;50.106;20.014;2023-12-14T12:45:37;7.80;99.90
38456;DHT22;24237;50.106;20.014;2023-12-14T12:48:03;8.00;99.90
38456;DHT22;24237;50.106;20.014;2023-12-14T12:50:29;7.80;99.90
38456;DHT22;24237;50.106;20.014;2023-12-14T12:52:55;8.00;57.80
38456;DHT22;24237;50.106;20.014;2023-12-14T12:55:21;8.10;99.90
38456;DHT22;24237;50.106;20.014;2023-12-14T12:57:48;8.10;1.00
38456;DHT22;24237;50.106;20.014;2023-12-14T13:00:15;8.00;99.90
38456;DHT22;24237;50.106;20.014;2023-12-14T13:02:42;7.70;99.90
38456;DHT22;24237;50.106;20.014;2023-12-14T13:05:10;7.70;1.00
38456;DHT22;24237;50.106;20.014;2023-12-14T13:07:36;7.60;1.00
38456;DHT22;24237;50.106;20.014;2023-12-14T13:10:03;7.60;40.10
38456;DHT22;24237;50.106;20.014;2023-12-14T13:12:30;8.00;99.90
38456;DHT22;24237;50.106;20.014;2023-12-14T13:14:55;7.80;1.00
38456;DHT22;24237;50.106;20.014;2023-12-14T13:17:21;7.80;1.00
38456;DHT22;24237;50.106;20.014;2023-12-14T13:19:47;7.80;1.00
38456;DHT22;24237;50.106;20.014;2023-12-14T13:22:13;8.20;99.90
38456;DHT22;24237;50.106;20.014;2023-12-14T13:24:39;8.30;1.00
38456;DHT22;24237;50.106;20.014;2023-12-14T13:27:05;8.10;17.20
38456;DHT22;24237;50.106;20.014;2023-12-14T13:29:31;8.10;99.90
38456;DHT22;24237;50.106;20.014;2023-12-14T13:31:58;7.80;1.00
38456;DHT22;24237;50.106;20.014;2023-12-14T13:34:25;8.00;99.90
38456;DHT22;24237;50.106;20.014;2023-12-14T13:36:51;7.80;99.90
38456;DHT22;24237;50.106;20.014;2023-12-14T13:39:17;7.90;1.00
38456;DHT22;24237;50.106;20.014;2023-12-14T13:41:43;8.00;1.00
38456;DHT22;24237;50.106;20.014;2023-12-14T13:44:08;8.00;1.00
38456;DHT22;24237;50.106;20.014;2023-12-14T13:46:34;8.10;99.90
38456;DHT22;24237;50.106;20.014;2023-12-14T13:49:00;8.00;99.90
38456;DHT22;24237;50.106;20.014;2023-12-14T13:51:27;7.80;99.90
38456;DHT22;24237;50.106;20.014;2023-12-14T13:53:53;7.80;99.90
38456;DHT22;24237;50.106;20.014;2023-12-14T13:56:19;7.80;99.90
38456;DHT22;24237;50.106;20.014;2023-12-14T13:58:45;8.00;99.90
38456;DHT22;24237;50.106;20.014;2023-12-14T14:01:11;7.80;99.90
38456;DHT22;24237;50.106;20.014;2023-12-14T14:03:37;7.60;1.00
38456;DHT22;24237;50.106;20.014;2023-12-14T14:06:04;7.70;1.00
38456;DHT22;24237;50.106;20.014;2023-12-14T14:08:30;7.80;1.00
38456;DHT22;24237;50.106;20.014;2023-12-14T14:10:57;7.70;99.90
38456;DHT22;24237;50.106;20.014;2023-12-14T14:13:23;7.60;1.00
38456;DHT22;24237;50.106;20.014;2023-12-14T14:15:49;7.60;1.00
38456;DHT22;24237;50.106;20.014;2023-12-14T14:18:16;7.50;1.00
38456;DHT22;24237;50.106;20.014;2023-12-14T14:20:42;7.70;97.70
38456;DHT22;24237;50.106;20.014;2023-12-14T14:23:08;7.60;61.50
38456;DHT22;24237;50.106;20.014;2023-12-14T14:25:33;7.50;6.20
38456;DHT22;24237;50.106;20.014;2023-12-14T14:27:59;7.60;35.60
38456;DHT22;24237;50.106;20.014;2023-12-14T14:30:25;7.70;1.00
38456;DHT22;24237;50.106;20.014;2023-12-14T14:32:51;7.70;1.00
38456;DHT22;24237;50.106;20.014;2023-12-14T14:35:18;7.80;37.00
38456;DHT22;24237;50.106;20.014;2023-12-14T14:37:43;7.70;1.00
38456;DHT22;24237;50.106;20.014;2023-12-14T14:40:14;7.70;53.90
38456;DHT22;24237;50.106;20.014;2023-12-14T14:42:40;7.60;1.00
38456;DHT22;24237;50.106;20.014;2023-12-14T14:45:07;7.50;99.90
38456;DHT22;24237;50.106;20.014;2023-12-14T14:47:34;7.50;99.90
38456;DHT22;24237;50.106;20.014;2023-12-14T14:50:00;7.60;34.30
38456;DHT22;24237;50.106;20.014;2023-12-14T14:52:30;7.70;1.00
38456;DHT22;24237;50.106;20.014;2023-12-14T14:54:56;7.60;99.90
38456;DHT22;24237;50.106;20.014;2023-12-14T14:57:21;7.60;1.00
38456;DHT22;24237;50.106;20.014;2023-12-14T14:59:47;7.80;48.90
38456;DHT22;24237;50.106;20.014;2023-12-14T15:02:13;7.60;1.00
38456;DHT22;24237;50.106;20.014;2023-12-14T15:04:38;7.50;99.90
38456;DHT22;24237;50.106;20.014;2023-12-14T15:07:04;7.50;99.90
38456;DHT22;24237;50.106;20.014;2023-12-14T15:09:30;7.50;99.90
38456;DHT22;24237;50.106;20.014;2023-12-14T15:11:55;7.60;99.90
38456;DHT22;24237;50.106;20.014;2023-12-14T15:14:21;7.70;95.40
38456;DHT22;24237;50.106;20.014;2023-12-14T15:16:47;7.60;33.30
38456;DHT22;24237;50.106;20.014;2023-12-14T15:19:13;7.60;50.10
38456;DHT22;24237;50.106;20.014;2023-12-14T15:21:39;7.70;99.90
38456;DHT22;24237;50.106;20.014;2023-12-14T15:24:05;7.60;99.90
38456;DHT22;24237;50.106;20.014;2023-12-14T15:26:31;7.60;99.90
38456;DHT22;24237;50.106;20.014;2023-12-14T15:29:01;7.70;68.40
38456;DHT22;24237;50.106;20.014;2023-12-14T15:31:28;7.60;99.90
38456;DHT22;24237;50.106;20.014;2023-12-14T15:33:54;7.60;99.90
38456;DHT22;24237;50.106;20.014;2023-12-14T15:36:20;7.60;99.90
38456;DHT22;24237;50.106;20.014;2023-12-14T15:38:46;7.70;99.90
38456;DHT22;24237;50.106;20.014;2023-12-14T15:41:12;7.60;99.90